sensor_id;sensor_type;location;lat;lon;timestamp;temperature;humidity
19864;DHT22;10094;48.820;9.226;2023-04-03T00:05:34;4.80;99.90
19864;DHT22;10094;48.820;9.226;2023-04-03T00:12:16;5.00;99.90
19864;DHT22;10094;48.820;9.226;2023-04-03T00:18:59;4.80;99.90
19864;DHT22;10094;48.820;9.226;2023-04-03T00:25:42;4.70;99.90
19864;DHT22;10094;48.820;9.226;2023-04-03T00:32:24;4.80;99.90
19864;DHT22;10094;48.820;9.226;2023-04-03T00:39:06;4.80;99.90
19864;DHT22;10094;48.820;9.226;2023-04-03T00:45:51;4.80;99.90
19864;DHT22;10094;48.820;9.226;2023-04-03T00:52:34;4.90;99.90
19864;DHT22;10094;48.820;9.226;2023-04-03T00:59:21;4.80;99.90
19864;DHT22;10094;48.820;9.226;2023-04-03T01:06:08;4.70;99.90
19864;DHT22;10094;48.820;9.226;2023-04-03T01:12:51;4.70;99.90
19864;DHT22;10094;48.820;9.226;2023-04-03T01:19:36;4.70;99.90
19864;DHT22;10094;48.820;9.226;2023-04-03T01:26:21;4.70;99.90
19864;DHT22;10094;48.820;9.226;2023-04-03T01:33:04;4.60;99.90
19864;DHT22;10094;48.820;9.226;2023-04-03T01:39:47;4.50;99.90
19864;DHT22;10094;48.820;9.226;2023-04-03T01:46:30;4.60;99.90
19864;DHT22;10094;48.820;9.226;2023-04-03T01:53:13;4.60;99.90
19864;DHT22;10094;48.820;9.226;2023-04-03T01:59:55;4.40;99.90
19864;DHT22;10094;48.820;9.226;2023-04-03T02:06:37;4.50;99.90
19864;DHT22;10094;48.820;9.226;2023-04-03T02:13:20;4.60;99.90
19864;DHT22;10094;48.820;9.226;2023-04-03T02:20:03;4.80;99.90
19864;DHT22;10094;48.820;9.226;2023-04-03T02:26:47;4.70;99.90
19864;DHT22;10094;48.820;9.226;2023-04-03T02:33:30;4.70;99.90
19864;DHT22;10094;48.820;9.226;2023-04-03T02:40:14;4.70;99.90
19864;DHT22;10094;48.820;9.226;2023-04-03T02:46:56;4.50;99.90
19864;DHT22;10094;48.820;9.226;2023-04-03T02:53:39;4.50;99.90
19864;DHT22;10094;48.820;9.226;2023-04-03T03:00:27;4.70;99.90
19864;DHT22;10094;48.820;9.226;2023-04-03T03:07:10;4.70;99.90
19864;DHT22;10094;48.820;9.226;2023-04-03T03:13:52;4.80;99.90
19864;DHT22;10094;48.820;9.226;2023-04-03T03:20:35;4.80;99.90
19864;DHT22;10094;48.820;9.226;2023-04-03T03:27:17;4.90;99.90
19864;DHT22;10094;48.820;9.226;2023-04-03T03:34:00;5.10;99.90
19864;DHT22;10094;48.820;9.226;2023-04-03T03:40:42;5.00;99.90
19864;DHT22;10094;48.820;9.226;2023-04-03T03:47:25;4.80;99.90
19864;DHT22;10094;48.820;9.226;2023-04-03T03:54:09;4.80;99.90
19864;DHT22;10094;48.820;9.226;2023-04-03T04:00:51;4.90;99.90
19864;DHT22;10094;48.820;9.226;2023-04-03T04:07:34;5.00;99.90
19864;DHT22;10094;48.820;9.226;2023-04-03T04:14:18;4.90;99.90
19864;DHT22;10094;48.820;9.226;2023-04-03T04:21:02;5.00;99.90
19864;DHT22;10094;48.820;9.226;2023-04-03T04:27:45;5.10;99.90
19864;DHT22;10094;48.820;9.226;2023-04-03T04:34:30;5.00;99.90
19864;DHT22;10094;48.820;9.226;2023-04-03T04:41:14;4.90;99.90
19864;DHT22;10094;48.820;9.226;2023-04-03T04:47:57;4.60;99.90
19864;DHT22;10094;48.820;9.226;2023-04-03T04:54:40;4.90;99.90
19864;DHT22;10094;48.820;9.226;2023-04-03T05:01:24;5.10;99.90
19864;DHT22;10094;48.820;9.226;2023-04-03T05:08:14;4.90;99.90
19864;DHT22;10094;48.820;9.226;2023-04-03T05:14:57;4.90;99.90
19864;DHT22;10094;48.820;9.226;2023-04-03T05:21:41;4.80;99.90
19864;DHT22;10094;48.820;9.226;2023-04-03T05:28:28;4.90;99.90
19864;DHT22;10094;48.820;9.226;2023-04-03T05:35:10;4.90;99.90
19864;DHT22;10094;48.820;9.226;2023-04-03T05:41:55;4.90;99.90
19864;DHT22;10094;48.820;9.226;2023-04-03T05:48:37;5.00;99.90
19864;DHT22;10094;48.820;9.226;2023-04-03T05:55:21;5.00;99.90
19864;DHT22;10094;48.820;9.226;2023-04-03T06:02:04;5.00;99.90
19864;DHT22;10094;48.820;9.226;2023-04-03T06:08:46;5.20;99.90
19864;DHT22;10094;48.820;9.226;2023-04-03T06:15:29;5.40;99.90
19864;DHT22;10094;48.820;9.226;2023-04-03T06:22:13;5.70;99.90
19864;DHT22;10094;48.820;9.226;2023-04-03T06:28:55;5.40;99.90
19864;DHT22;10094;48.820;9.226;2023-04-03T06:35:38;5.10;99.90
19864;DHT22;10094;48.820;9.226;2023-04-03T06:42:20;5.20;99.90
19864;DHT22;10094;48.820;9.226;2023-04-03T06:49:12;4.90;99.90
19864;DHT22;10094;48.820;9.226;2023-04-03T06:55:55;5.10;99.90
19864;DHT22;10094;48.820;9.226;2023-04-03T07:02:37;5.20;99.90
19864;DHT22;10094;48.820;9.226;2023-04-03T07:09:20;5.30;99.90
19864;DHT22;10094;48.820;9.226;2023-04-03T07:16:04;5.40;99.90
19864;DHT22;10094;48.820;9.226;2023-04-03T07:22:48;5.60;99.90
19864;DHT22;10094;48.820;9.226;2023-04-03T07:29:32;5.90;99.90
19864;DHT22;10094;48.820;9.226;2023-04-03T07:36:17;6.10;99.90
19864;DHT22;10094;48.820;9.226;2023-04-03T07:43:00;6.30;99.90
19864;DHT22;10094;48.820;9.226;2023-04-03T07:49:43;6.40;99.90
19864;DHT22;10094;48.820;9.226;2023-04-03T07:56:25;6.20;99.90
19864;DHT22;10094;48.820;9.226;2023-04-03T08:03:10;6.40;99.90
19864;DHT22;10094;48.820;9.226;2023-04-03T08:09:54;6.60;99.90
19864;DHT22;10094;48.820;9.226;2023-04-03T08:16:36;6.60;99.90
19864;DHT22;10094;48.820;9.226;2023-04-03T08:23:19;6.50;99.90
19864;DHT22;10094;48.820;9.226;2023-04-03T08:30:02;7.10;99.90
19864;DHT22;10094;48.820;9.226;2023-04-03T08:36:46;7.10;99.90
19864;DHT22;10094;48.820;9.226;2023-04-03T08:50:41;7.20;98.70
19864;DHT22;10094;48.820;9.226;2023-04-03T08:57:34;7.10;99.90
19864;DHT22;10094;48.820;9.226;2023-04-03T09:04:17;7.10;99.40
19864;DHT22;10094;48.820;9.226;2023-04-03T09:11:26;7.30;97.10
19864;DHT22;10094;48.820;9.226;2023-04-03T09:18:36;7.30;98.70
19864;DHT22;10094;48.820;9.226;2023-04-03T09:25:27;6.70;99.80
19864;DHT22;10094;48.820;9.226;2023-04-03T09:32:25;7.10;99.00
19864;DHT22;10094;48.820;9.226;2023-04-03T09:39:48;7.60;96.80
19864;DHT22;10094;48.820;9.226;2023-04-03T09:46:33;7.70;97.40
19864;DHT22;10094;48.820;9.226;2023-04-03T09:53:36;7.70;95.30
19864;DHT22;10094;48.820;9.226;2023-04-03T10:07:28;7.30;97.10
19864;DHT22;10094;48.820;9.226;2023-04-03T10:14:17;7.60;96.00
19864;DHT22;10094;48.820;9.226;2023-04-03T10:21:07;7.70;94.00
19864;DHT22;10094;48.820;9.226;2023-04-03T10:42:28;7.10;95.40
19864;DHT22;10094;48.820;9.226;2023-04-03T10:56:32;7.40;93.90
19864;DHT22;10094;48.820;9.226;2023-04-03T11:03:29;7.70;92.60
19864;DHT22;10094;48.820;9.226;2023-04-03T11:10:20;8.10;91.80
19864;DHT22;10094;48.820;9.226;2023-04-03T11:17:15;8.00;90.10
19864;DHT22;10094;48.820;9.226;2023-04-03T11:24:03;7.70;90.90
19864;DHT22;10094;48.820;9.226;2023-04-03T11:37:47;7.70;91.30
19864;DHT22;10094;48.820;9.226;2023-04-03T11:44:34;7.70;92.10
19864;DHT22;10094;48.820;9.226;2023-04-03T11:58:16;8.00;90.40
19864;DHT22;10094;48.820;9.226;2023-04-03T12:05:25;8.20;91.20
19864;DHT22;10094;48.820;9.226;2023-04-03T12:12:27;7.90;91.80
19864;DHT22;10094;48.820;9.226;2023-04-03T12:19:30;8.00;90.80
19864;DHT22;10094;48.820;9.226;2023-04-03T12:26:28;8.30;90.00
19864;DHT22;10094;48.820;9.226;2023-04-03T12:33:44;8.20;91.40
19864;DHT22;10094;48.820;9.226;2023-04-03T12:47:34;7.90;89.00
19864;DHT22;10094;48.820;9.226;2023-04-03T12:54:34;7.90;88.60
19864;DHT22;10094;48.820;9.226;2023-04-03T13:01:21;8.00;88.90
19864;DHT22;10094;48.820;9.226;2023-04-03T13:08:09;8.30;87.90
19864;DHT22;10094;48.820;9.226;2023-04-03T13:14:59;9.30;84.90
19864;DHT22;10094;48.820;9.226;2023-04-03T13:21:42;8.90;86.40
19864;DHT22;10094;48.820;9.226;2023-04-03T13:28:27;8.50;86.90
19864;DHT22;10094;48.820;9.226;2023-04-03T13:35:41;8.50;84.50
19864;DHT22;10094;48.820;9.226;2023-04-03T13:42:29;9.00;82.10
19864;DHT22;10094;48.820;9.226;2023-04-03T14:02:47;8.80;81.30
19864;DHT22;10094;48.820;9.226;2023-04-03T14:09:29;8.50;83.10
19864;DHT22;10094;48.820;9.226;2023-04-03T14:16:20;8.20;82.40
19864;DHT22;10094;48.820;9.226;2023-04-03T14:23:03;8.30;83.70
19864;DHT22;10094;48.820;9.226;2023-04-03T14:29:46;8.50;81.30
19864;DHT22;10094;48.820;9.226;2023-04-03T14:36:29;8.50;81.70
19864;DHT22;10094;48.820;9.226;2023-04-03T14:43:13;8.60;79.70
19864;DHT22;10094;48.820;9.226;2023-04-03T14:49:56;8.50;81.20
19864;DHT22;10094;48.820;9.226;2023-04-03T14:56:38;8.70;81.00
19864;DHT22;10094;48.820;9.226;2023-04-03T15:03:22;8.40;79.40
19864;DHT22;10094;48.820;9.226;2023-04-03T15:10:23;8.30;80.00
19864;DHT22;10094;48.820;9.226;2023-04-03T15:17:08;8.30;79.50
19864;DHT22;10094;48.820;9.226;2023-04-03T15:23:53;8.30;79.40
19864;DHT22;10094;48.820;9.226;2023-04-03T15:30:38;8.30;78.70
19864;DHT22;10094;48.820;9.226;2023-04-03T15:37:22;8.10;79.50
19864;DHT22;10094;48.820;9.226;2023-04-03T15:44:05;7.90;79.30
19864;DHT22;10094;48.820;9.226;2023-04-03T15:50:47;7.80;77.60
19864;DHT22;10094;48.820;9.226;2023-04-03T15:57:29;8.10;78.70
19864;DHT22;10094;48.820;9.226;2023-04-03T16:04:18;8.70;78.60
19864;DHT22;10094;48.820;9.226;2023-04-03T16:11:04;8.70;78.10
19864;DHT22;10094;48.820;9.226;2023-04-03T16:17:47;8.40;77.40
19864;DHT22;10094;48.820;9.226;2023-04-03T16:24:30;8.00;79.40
19864;DHT22;10094;48.820;9.226;2023-04-03T16:31:14;7.80;80.20
19864;DHT22;10094;48.820;9.226;2023-04-03T16:37:57;8.20;78.40
19864;DHT22;10094;48.820;9.226;2023-04-03T16:44:39;8.20;77.40
19864;DHT22;10094;48.820;9.226;2023-04-03T16:51:22;8.10;78.10
19864;DHT22;10094;48.820;9.226;2023-04-03T16:58:08;8.00;79.10
19864;DHT22;10094;48.820;9.226;2023-04-03T17:04:52;7.90;79.00
19864;DHT22;10094;48.820;9.226;2023-04-03T17:11:35;7.90;77.80
19864;DHT22;10094;48.820;9.226;2023-04-03T17:18:18;7.70;79.70
19864;DHT22;10094;48.820;9.226;2023-04-03T17:25:00;7.40;79.80
19864;DHT22;10094;48.820;9.226;2023-04-03T17:31:43;7.30;80.90
19864;DHT22;10094;48.820;9.226;2023-04-03T17:38:25;7.10;81.70
19864;DHT22;10094;48.820;9.226;2023-04-03T17:45:08;7.00;82.40
19864;DHT22;10094;48.820;9.226;2023-04-03T17:51:51;7.00;82.10
19864;DHT22;10094;48.820;9.226;2023-04-03T17:58:34;6.80;82.70
19864;DHT22;10094;48.820;9.226;2023-04-03T18:05:17;7.00;83.40
19864;DHT22;10094;48.820;9.226;2023-04-03T18:12:05;6.40;83.60
19864;DHT22;10094;48.820;9.226;2023-04-03T18:18:48;6.70;83.50
19864;DHT22;10094;48.820;9.226;2023-04-03T18:25:43;6.60;84.20
19864;DHT22;10094;48.820;9.226;2023-04-03T18:32:26;6.60;84.40
19864;DHT22;10094;48.820;9.226;2023-04-03T18:39:08;6.40;84.70
19864;DHT22;10094;48.820;9.226;2023-04-03T18:45:51;6.30;85.30
19864;DHT22;10094;48.820;9.226;2023-04-03T18:52:33;6.10;85.80
19864;DHT22;10094;48.820;9.226;2023-04-03T18:59:16;6.00;85.60
19864;DHT22;10094;48.820;9.226;2023-04-03T19:05:58;5.80;85.60
19864;DHT22;10094;48.820;9.226;2023-04-03T19:12:41;6.00;86.50
19864;DHT22;10094;48.820;9.226;2023-04-03T19:19:24;6.00;88.40
19864;DHT22;10094;48.820;9.226;2023-04-03T19:26:07;6.00;90.00
19864;DHT22;10094;48.820;9.226;2023-04-03T19:32:50;5.90;88.90
19864;DHT22;10094;48.820;9.226;2023-04-03T19:39:33;5.90;87.40
19864;DHT22;10094;48.820;9.226;2023-04-03T19:46:18;5.80;86.50
19864;DHT22;10094;48.820;9.226;2023-04-03T19:53:03;5.70;86.30
19864;DHT22;10094;48.820;9.226;2023-04-03T19:59:45;5.60;86.70
19864;DHT22;10094;48.820;9.226;2023-04-03T20:06:28;5.60;86.00
19864;DHT22;10094;48.820;9.226;2023-04-03T20:13:10;5.50;86.60
19864;DHT22;10094;48.820;9.226;2023-04-03T20:19:55;5.20;87.80
19864;DHT22;10094;48.820;9.226;2023-04-03T20:26:42;4.90;88.90
19864;DHT22;10094;48.820;9.226;2023-04-03T20:33:27;4.70;90.00
19864;DHT22;10094;48.820;9.226;2023-04-03T20:40:10;4.60;90.50
19864;DHT22;10094;48.820;9.226;2023-04-03T20:46:52;4.00;91.60
19864;DHT22;10094;48.820;9.226;2023-04-03T20:53:35;4.30;91.70
19864;DHT22;10094;48.820;9.226;2023-04-03T21:00:18;4.10;92.10
19864;DHT22;10094;48.820;9.226;2023-04-03T21:21:42;3.70;94.10
19864;DHT22;10094;48.820;9.226;2023-04-03T21:28:27;3.50;94.00
19864;DHT22;10094;48.820;9.226;2023-04-03T21:35:09;3.50;94.20
19864;DHT22;10094;48.820;9.226;2023-04-03T21:41:51;3.40;94.30
19864;DHT22;10094;48.820;9.226;2023-04-03T21:48:34;3.30;94.80
19864;DHT22;10094;48.820;9.226;2023-04-03T21:55:17;3.20;95.00
19864;DHT22;10094;48.820;9.226;2023-04-03T22:02:00;3.10;95.20
19864;DHT22;10094;48.820;9.226;2023-04-03T22:08:43;3.10;95.00
19864;DHT22;10094;48.820;9.226;2023-04-03T22:15:25;3.00;95.40
19864;DHT22;10094;48.820;9.226;2023-04-03T22:22:08;3.00;95.10
19864;DHT22;10094;48.820;9.226;2023-04-03T22:28:50;2.90;95.40
19864;DHT22;10094;48.820;9.226;2023-04-03T22:35:32;2.80;95.90
19864;DHT22;10094;48.820;9.226;2023-04-03T22:42:15;2.70;96.40
19864;DHT22;10094;48.820;9.226;2023-04-03T22:48:57;2.60;97.00
19864;DHT22;10094;48.820;9.226;2023-04-03T22:55:40;2.60;96.70
19864;DHT22;10094;48.820;9.226;2023-04-03T23:02:22;2.50;96.90
19864;DHT22;10094;48.820;9.226;2023-04-03T23:09:04;2.50;97.10
19864;DHT22;10094;48.820;9.226;2023-04-03T23:15:53;2.40;97.20
19864;DHT22;10094;48.820;9.226;2023-04-03T23:22:35;2.40;97.40
19864;DHT22;10094;48.820;9.226;2023-04-03T23:29:18;2.40;97.50
19864;DHT22;10094;48.820;9.226;2023-04-03T23:36:05;2.30;98.10
19864;DHT22;10094;48.820;9.226;2023-04-03T23:42:49;2.30;98.10
19864;DHT22;10094;48.820;9.226;2023-04-03T23:49:32;2.20;98.50
19864;DHT22;10094;48.820;9.226;2023-04-03T23:56:15;2.60;99.40
